Tipp, Ohio
Current Conditions -  °F | °C
As of 1:56 PM on Wednesday 17 Dec 2014 (Local Time) from KDAY Reporting Station
Overcast Overcast  
Wind Chill: 17°   Ceiling: 1200
Heat Index: 29°   Visibility: 10mi
Dew Point: 23°   Wind: 16mph
Humidity: 78%   Direction: 270°W
Pressure: 30.18"   Gusts: NA
Location:  39.9332°N, 84.1192°W
Report Text: KDAY 171856Z 27014KT 10SM OVC012 M02/M05 A3018 RMK AO2 SLP230 T10171050
Loading
Personal Weather Stations






























Interactive Weather Map New forecast layout! Learn more

10-Day Weather Forecast

Advertisements
Track Severe Weather on mobile